KCAV Airport (Clarion Muni) Information

FAA: CAV - ICAO: KCAV

KCAV Airport Location

State Iowa
County Wright
City Clarion
KCAV Airport is 1 miles northwest of Clarion, IA.
Latitude 42-44-25.7000N
Longitude 093-45-32.6000W
Elevation 1,156ft

KCAV Airport METARs

METAR KCAV 302215Z AUTO 15010G16KT 10SM CLR 22/05 A3011 RMK A01
Altimeter 30.11"
Temperature 22.0°C (71.6°F)
Wind 150° at 10KT with gusts to 16KT
Clouds Skies are clear.
Visibility 10.0mi
Time observed: 2022-09-30T22:15:00Z

KCAV Airport Details

Status Operational
Activation December 1941
Ownership Public
Usage Public
Chart OMAHA
ATC on-site No
Beacon schedule sunset-sunrise
Beacon color clear green

KCAV Airport Contacts

Owner CITY OF CLARION
Owner address 121 1ST ST. SW, CLARION, IA 50525
Owner phone 515-851-0526
Manager MARTIN LENSS, CM
Manager address 2515 ARTHUR COLLINS PKWY SW, CEDAR RAPIDS, IA 52404-8952
Manager phone (319) 731-5711

KCAV Airport (Clarion Muni) Radio Frequencies

KCAV (Airport) Radio Frequencies

UNICOM 122.8
Common traffic advisory frequency (CTAF) 122.8